createdAt,value
2016-06-12T00:00:27.745Z,66.33
2016-06-12T00:01:27.733Z,66.8
2016-06-12T00:02:27.720Z,66.42
2016-06-12T00:03:27.692Z,67
2016-06-12T00:04:28.367Z,66.9
2016-06-12T00:05:27.651Z,66.61
2016-06-12T00:06:27.638Z,66.71
2016-06-12T00:07:27.627Z,66.9
2016-06-12T00:08:27.598Z,66.42
2016-06-12T00:09:27.611Z,67
2016-06-12T00:10:27.621Z,66.71
2016-06-12T00:11:27.647Z,66.8
2016-06-12T00:12:27.672Z,66.61
2016-06-12T00:13:27.682Z,66.71
2016-06-12T00:14:27.691Z,66.61
2016-06-12T00:15:27.676Z,67.19
2016-06-12T00:16:27.678Z,67.09
2016-06-12T00:17:27.679Z,67
2016-06-12T00:18:27.665Z,67
2016-06-12T00:19:28.394Z,67
2016-06-12T00:20:27.668Z,67.09
2016-06-12T00:21:27.645Z,67
2016-06-12T00:22:27.621Z,67
2016-06-12T00:23:27.614Z,67
2016-06-12T00:24:27.589Z,67.19
2016-06-12T00:25:27.578Z,67.29
2016-06-12T00:26:27.552Z,67.19
2016-06-12T00:27:27.541Z,67.57
2016-06-12T00:28:27.530Z,67.38
2016-06-12T00:29:27.503Z,67.57
2016-06-12T00:30:27.492Z,67.63
2016-06-12T00:31:27.463Z,67.35
2016-06-12T00:32:27.452Z,67.25
2016-06-12T00:33:27.439Z,67.06
2016-06-12T00:34:27.459Z,67.16
2016-06-12T00:35:27.399Z,67.16
2016-06-12T00:36:27.387Z,67.35
2016-06-12T00:37:27.359Z,67.83
2016-06-12T00:38:27.347Z,67.73
2016-06-12T00:39:27.318Z,67.73
2016-06-12T00:40:27.307Z,67.73
2016-06-12T00:41:27.293Z,67.73
2016-06-12T00:42:27.282Z,67.44
2016-06-12T00:43:27.252Z,67.54
2016-06-12T00:44:27.225Z,67.73
2016-06-12T00:45:27.212Z,68.12
2016-06-12T00:46:27.200Z,68.21
2016-06-12T00:47:27.172Z,68.3
2016-06-12T00:48:27.159Z,68.69
2016-06-12T00:49:27.131Z,68.3
2016-06-12T00:50:27.135Z,68.79
2016-06-12T00:51:27.105Z,68.5
2016-06-12T00:52:27.078Z,68.69
2016-06-12T00:53:27.065Z,68.3
2016-06-12T00:54:27.053Z,68.88
2016-06-12T00:55:27.025Z,68.88
2016-06-12T00:56:27.011Z,68.79
2016-06-12T00:57:26.984Z,68.88
2016-06-12T00:58:26.971Z,69.46
2016-06-12T00:59:26.943Z,69.17
2016-06-12T01:00:26.930Z,69.36
2016-06-12T01:01:26.918Z,69.56
2016-06-12T01:02:26.889Z,69.33
2016-06-12T01:03:26.877Z,69.81
2016-06-12T01:04:26.850Z,69.71
2016-06-12T01:05:26.836Z,69.71
2016-06-12T01:06:26.808Z,69.62
2016-06-12T01:07:26.795Z,69.9
2016-06-12T01:08:26.799Z,70.19
2016-06-12T01:09:26.754Z,70.09
2016-06-12T01:10:26.743Z,70
2016-06-12T01:11:26.714Z,70.09
2016-06-12T01:12:26.701Z,70.38
2016-06-12T01:13:26.673Z,70.48
2016-06-12T01:14:26.661Z,70.48
2016-06-12T01:15:26.648Z,70.76
2016-06-12T01:16:26.621Z,70.76
2016-06-12T01:17:26.607Z,70.67
2016-06-12T01:18:26.580Z,70.67
2016-06-12T01:19:26.566Z,70.76
2016-06-12T01:20:26.663Z,71.05
2016-06-12T01:21:26.526Z,70.86
2016-06-12T01:22:26.513Z,71.44
2016-06-12T01:23:26.486Z,71.15
2016-06-12T01:24:26.473Z,71.05
2016-06-12T01:25:26.445Z,71.44
2016-06-12T01:26:26.432Z,71.15
2016-06-12T01:27:26.420Z,71.44
2016-06-12T01:28:26.407Z,71.15
2016-06-12T01:29:26.379Z,71.15
2016-06-12T01:30:26.350Z,71.25
2016-06-12T01:31:26.339Z,71.15
2016-06-12T01:32:26.325Z,71.25
2016-06-12T01:33:26.297Z,71.63
2016-06-12T01:34:26.285Z,71.92
2016-06-12T01:35:26.741Z,72.01
2016-06-12T01:36:26.244Z,71.63
2016-06-12T01:37:26.232Z,71.63
2016-06-12T01:38:26.204Z,72.01
2016-06-12T01:39:26.191Z,71.72
2016-06-12T01:40:26.163Z,71.82
2016-06-12T01:41:26.151Z,71.92
2016-06-12T01:42:26.122Z,71.72
2016-06-12T01:43:26.109Z,71.92
2016-06-12T01:44:26.081Z,72.01
2016-06-12T01:45:26.069Z,71.63
2016-06-12T01:46:26.041Z,71.63
2016-06-12T01:47:26.027Z,71.63
2016-06-12T01:48:26.016Z,71.63
2016-06-12T01:49:25.988Z,71.92
2016-06-12T01:50:25.975Z,71.44
2016-06-12T01:51:25.962Z,71.25
2016-06-12T01:52:25.934Z,71.53
2016-06-12T01:53:25.921Z,71.15
2016-06-12T01:54:25.893Z,71.44
2016-06-12T01:55:25.882Z,71.05
2016-06-12T01:56:25.852Z,71.44
2016-06-12T01:57:25.840Z,71.15
2016-06-12T01:58:25.828Z,71.44
2016-06-12T01:59:25.814Z,71.44
2016-06-12T02:00:25.787Z,71.09
2016-06-12T02:01:25.775Z,71.47
2016-06-12T02:02:25.746Z,71.57
2016-06-12T02:03:25.718Z,71.28
2016-06-12T02:04:25.705Z,71.28
2016-06-12T02:05:26.099Z,71.34
2016-06-12T02:06:25.665Z,71.47
2016-06-12T02:07:25.668Z,71.34
2016-06-12T02:08:25.624Z,71.05
2016-06-12T02:09:25.612Z,71.72
2016-06-12T02:10:25.599Z,71.82
2016-06-12T02:11:25.571Z,71.72
2016-06-12T02:12:25.559Z,71.63
2016-06-12T02:13:25.530Z,71.82
2016-06-12T02:14:25.518Z,72.2
2016-06-12T02:15:25.505Z,72.01
2016-06-12T02:16:25.477Z,72.3
2016-06-12T02:17:25.464Z,72.3
2016-06-12T02:18:25.436Z,72.49
2016-06-12T02:19:25.423Z,72.59
2016-06-12T02:20:25.411Z,72.39
2016-06-12T02:21:25.382Z,72.39
2016-06-12T02:22:25.371Z,72.2
2016-06-12T02:23:25.342Z,72.2
2016-06-12T02:24:25.345Z,72.39
2016-06-12T02:25:25.316Z,72.59
2016-06-12T02:26:25.289Z,72.68
2016-06-12T02:27:25.276Z,72.59
2016-06-12T02:28:25.247Z,72.78
2016-06-12T02:29:25.236Z,72.49
2016-06-12T02:30:25.223Z,72.11
2016-06-12T02:31:25.195Z,72.39
2016-06-12T02:32:25.182Z,72.59
2016-06-12T02:33:25.155Z,72.39
2016-06-12T02:34:25.141Z,72.39
2016-06-12T02:35:25.113Z,72.49
2016-06-12T02:36:25.100Z,72.3
2016-06-12T02:37:25.088Z,72.3
2016-06-12T02:38:25.060Z,72.49
2016-06-12T02:39:25.048Z,72.2
2016-06-12T02:40:25.020Z,72.39
2016-06-12T02:41:25.006Z,72.59
2016-06-12T02:42:24.994Z,72.49
2016-06-12T02:43:24.966Z,72.59
2016-06-12T02:44:24.953Z,72.59
2016-06-12T02:45:24.925Z,72.78
2016-06-12T02:46:24.913Z,72.72
2016-06-12T02:47:24.900Z,72.78
2016-06-12T02:48:24.872Z,72.3
2016-06-12T02:49:24.859Z,72.43
2016-06-12T02:50:24.831Z,72.49
2016-06-12T02:51:24.818Z,72.11
2016-06-12T02:52:24.791Z,72.11
2016-06-12T02:53:24.777Z,71.86
2016-06-12T02:54:24.765Z,71.95
2016-06-12T02:55:24.737Z,71.95
2016-06-12T02:56:24.725Z,72.11
2016-06-12T02:57:24.696Z,71.95
2016-06-12T02:58:24.684Z,71.82
2016-06-12T02:59:24.656Z,72.14
2016-06-12T03:00:24.643Z,72.24
2016-06-12T03:01:24.630Z,72.14
2016-06-12T03:02:24.602Z,72.11
2016-06-12T03:03:24.590Z,72.01
2016-06-12T03:04:24.577Z,71.95
2016-06-12T03:05:25.190Z,72.05
2016-06-12T03:06:24.536Z,71.86
2016-06-12T03:07:24.508Z,72.05
2016-06-12T03:08:24.496Z,71.95
2016-06-12T03:09:24.484Z,71.86
2016-06-12T03:10:24.454Z,72.05
2016-06-12T03:11:24.443Z,72.14
2016-06-12T03:12:24.414Z,72.14
2016-06-12T03:13:24.402Z,72.24
2016-06-12T03:14:24.389Z,71.95
2016-06-12T03:15:24.361Z,72.05
2016-06-12T03:16:24.349Z,72.33
2016-06-12T03:17:24.320Z,71.95
2016-06-12T03:18:24.307Z,72.05
2016-06-12T03:19:24.295Z,72.14
2016-06-12T03:20:24.267Z,72.14
2016-06-12T03:21:24.255Z,72.14
2016-06-12T03:22:24.226Z,72.24
2016-06-12T03:23:24.213Z,72.05
2016-06-12T03:24:24.186Z,71.86
2016-06-12T03:25:24.173Z,71.95
2016-06-12T03:26:24.161Z,72.05
2016-06-12T03:27:24.132Z,72.05
2016-06-12T03:28:24.120Z,72.05
2016-06-12T03:29:24.107Z,71.86
2016-06-12T03:30:24.080Z,72.14
2016-06-12T03:31:24.066Z,72.24
2016-06-12T03:32:24.038Z,72.14
2016-06-12T03:33:24.026Z,72.33
2016-06-12T03:34:24.014Z,72.24
2016-06-12T03:35:23.985Z,71.86
2016-06-12T03:36:24.066Z,71.86
2016-06-12T03:37:23.960Z,71.86
2016-06-12T03:38:23.932Z,71.76
2016-06-12T03:39:23.904Z,71.66
2016-06-12T03:40:23.891Z,71.76
2016-06-12T03:41:23.878Z,71.76
2016-06-12T03:42:23.867Z,71.57
2016-06-12T03:43:23.838Z,71.66
2016-06-12T03:44:23.825Z,71.86
2016-06-12T03:45:23.797Z,71.66
2016-06-12T03:46:23.784Z,71.86
2016-06-12T03:47:23.757Z,71.86
2016-06-12T03:48:23.744Z,71.76
2016-06-12T03:49:23.715Z,71.66
2016-06-12T03:50:23.703Z,71.86
2016-06-12T03:51:23.691Z,71.95
2016-06-12T03:52:23.662Z,71.86
2016-06-12T03:53:23.650Z,71.86
2016-06-12T03:54:23.637Z,71.86
2016-06-12T03:55:23.610Z,71.95
2016-06-12T03:56:23.596Z,72.14
2016-06-12T03:57:23.568Z,71.86
2016-06-12T03:58:23.555Z,71.86
2016-06-12T03:59:23.543Z,72.05
2016-06-12T04:00:23.516Z,71.76
2016-06-12T04:01:23.503Z,71.76
2016-06-12T04:02:23.489Z,71.76
2016-06-12T04:03:23.461Z,71.95
2016-06-12T04:04:23.449Z,71.86
2016-06-12T04:05:23.421Z,71.76
2016-06-12T04:06:23.471Z,71.76
2016-06-12T04:07:23.396Z,71.76
2016-06-12T04:08:23.368Z,71.76
2016-06-12T04:09:23.355Z,71.76
2016-06-12T04:10:23.342Z,71.86
2016-06-12T04:11:23.314Z,72.05
2016-06-12T04:12:23.302Z,71.76
2016-06-12T04:13:23.273Z,72.24
2016-06-12T04:14:23.262Z,71.76
2016-06-12T04:15:23.248Z,71.66
2016-06-12T04:16:23.221Z,71.86
2016-06-12T04:17:23.208Z,71.47
2016-06-12T04:18:23.180Z,71.47
2016-06-12T04:19:23.166Z,71.76
2016-06-12T04:20:23.155Z,71.86
2016-06-12T04:21:23.314Z,71.86
2016-06-12T04:22:23.114Z,71.66
2016-06-12T04:23:23.101Z,71.61
2016-06-12T04:24:23.073Z,71.41
2016-06-12T04:25:23.061Z,71.19
2016-06-12T04:26:23.048Z,71.41
2016-06-12T04:27:23.019Z,71.51
2016-06-12T04:28:23.007Z,71.51
2016-06-12T04:29:22.995Z,71.12
2016-06-12T04:30:22.967Z,71.7
2016-06-12T04:31:22.954Z,71.31
2016-06-12T04:32:22.925Z,71.22
2016-06-12T04:33:22.913Z,71.41
2016-06-12T04:34:22.901Z,70.93
2016-06-12T04:35:22.873Z,71.12
2016-06-12T04:36:23.172Z,71.03
2016-06-12T04:37:22.847Z,71.03
2016-06-12T04:38:22.820Z,70.84
2016-06-12T04:39:22.806Z,70.93
2016-06-12T04:40:22.778Z,70.45
2016-06-12T04:41:22.767Z,70.74
2016-06-12T04:42:22.754Z,70.36
2016-06-12T04:43:22.726Z,70.36
2016-06-12T04:44:22.713Z,70.26
2016-06-12T04:45:22.700Z,70.07
2016-06-12T04:46:22.672Z,70.2
2016-06-12T04:47:22.660Z,70.01
2016-06-12T04:48:22.647Z,69.91
2016-06-12T04:49:22.619Z,69.91
2016-06-12T04:50:22.606Z,70.01
2016-06-12T04:51:22.687Z,69.62
2016-06-12T04:52:22.566Z,69.81
2016-06-12T04:53:22.553Z,69.34
2016-06-12T04:54:22.540Z,69.24
2016-06-12T04:55:22.513Z,69.34
2016-06-12T04:56:22.500Z,69.53
2016-06-12T04:57:22.486Z,68.85
2016-06-12T04:58:22.459Z,68.76
2016-06-12T04:59:22.447Z,68.95
2016-06-12T05:00:22.434Z,68.85
2016-06-12T05:01:22.406Z,68.85
2016-06-12T05:02:22.393Z,68.47
2016-06-12T05:03:22.380Z,68.47
2016-06-12T05:04:22.352Z,68.57
2016-06-12T05:05:22.340Z,68.47
2016-06-12T05:06:22.328Z,68.47
2016-06-12T05:07:22.300Z,68.28
2016-06-12T05:08:22.286Z,68.47
2016-06-12T05:09:22.273Z,68.28
2016-06-12T05:10:22.262Z,68.18
2016-06-12T05:11:22.234Z,67.7
2016-06-12T05:12:22.220Z,67.7
2016-06-12T05:13:22.208Z,67.99
2016-06-12T05:14:22.180Z,67.7
2016-06-12T05:15:22.167Z,67.64
2016-06-12T05:16:22.155Z,67.13
2016-06-12T05:17:22.127Z,67.35
2016-06-12T05:18:22.114Z,67.35
2016-06-12T05:19:22.102Z,67.54
2016-06-12T05:20:22.089Z,66.97
2016-06-12T05:21:22.264Z,67.07
2016-06-12T05:22:22.049Z,67.25
2016-06-12T05:23:22.036Z,67.16
2016-06-12T05:24:22.007Z,67.25
2016-06-12T05:25:21.995Z,67.35
2016-06-12T05:26:21.982Z,67.25
2016-06-12T05:27:21.970Z,67.07
2016-06-12T05:28:21.942Z,67.25
2016-06-12T05:29:21.929Z,67.25
2016-06-12T05:30:21.917Z,67.16
2016-06-12T05:31:21.889Z,67.07
2016-06-12T05:32:21.876Z,66.87
2016-06-12T05:33:21.864Z,67.07
2016-06-12T05:34:21.850Z,67.64
2016-06-12T05:35:21.823Z,67.45
2016-06-12T05:36:22.060Z,67.25
2016-06-12T05:37:21.798Z,67.16
2016-06-12T05:38:21.770Z,67.25
2016-06-12T05:39:21.757Z,67.64
2016-06-12T05:40:21.744Z,67.74
2016-06-12T05:41:21.732Z,67.45
2016-06-12T05:42:21.704Z,67.64
2016-06-12T05:43:21.691Z,67.45
2016-06-12T05:44:21.678Z,67.45
2016-06-12T05:45:21.650Z,67.64
2016-06-12T05:46:21.637Z,67.74
2016-06-12T05:47:21.625Z,67.83
2016-06-12T05:48:21.612Z,67.64
2016-06-12T05:49:21.584Z,67.93
2016-06-12T05:50:21.571Z,67.64
2016-06-12T05:51:21.560Z,67.74
2016-06-12T05:52:21.547Z,67.86
2016-06-12T05:53:21.519Z,67.77
2016-06-12T05:54:21.506Z,67.96
2016-06-12T05:55:21.494Z,68.06
2016-06-12T05:56:21.481Z,67.86
2016-06-12T05:57:21.453Z,68.15
2016-06-12T05:58:21.441Z,68.35
2016-06-12T05:59:21.427Z,68.35
2016-06-12T06:00:21.415Z,68.06
2016-06-12T06:01:21.388Z,68.15
2016-06-12T06:02:21.374Z,68.35
2016-06-12T06:03:21.362Z,67.86
2016-06-12T06:04:21.333Z,68.06
2016-06-12T06:05:21.321Z,67.68
2016-06-12T06:06:21.308Z,67.58
2016-06-12T06:07:21.296Z,67.58
2016-06-12T06:08:21.284Z,67.77
2016-06-12T06:09:21.255Z,67.86
2016-06-12T06:10:21.258Z,68.06
2016-06-12T06:11:21.230Z,67.42
2016-06-12T06:12:21.217Z,67.8
2016-06-12T06:13:21.189Z,67.51
2016-06-12T06:14:21.177Z,67.32
2016-06-12T06:15:21.165Z,67.22
2016-06-12T06:16:21.151Z,67.13
2016-06-12T06:17:21.139Z,67.32
2016-06-12T06:18:21.111Z,67.42
2016-06-12T06:19:21.099Z,66.94
2016-06-12T06:20:21.086Z,66.46
2016-06-12T06:21:21.401Z,66.55
2016-06-12T06:22:21.061Z,66.65
2016-06-12T06:23:21.033Z,66.58
2016-06-12T06:24:21.020Z,66.01
2016-06-12T06:25:21.007Z,66.49
2016-06-12T06:26:20.996Z,66.2
2016-06-12T06:27:20.982Z,65.53
2016-06-12T06:28:20.970Z,65.33
2016-06-12T06:29:20.942Z,65.53
2016-06-12T06:30:20.930Z,65.14
2016-06-12T06:31:20.917Z,65.14
2016-06-12T06:32:20.903Z,64.66
2016-06-12T06:33:20.892Z,64.66
2016-06-12T06:34:20.879Z,63.89
2016-06-12T06:35:20.850Z,64.4
2016-06-12T06:36:21.495Z,63.92
2016-06-12T06:37:21.154Z,63.82
2016-06-12T06:38:20.813Z,63.25
2016-06-12T06:39:20.800Z,63.44
2016-06-12T06:40:20.789Z,62.57
2016-06-12T06:41:20.776Z,62.57
2016-06-12T06:42:20.763Z,62.09
2016-06-12T06:43:20.735Z,62.03
2016-06-12T06:44:20.722Z,61.45
2016-06-12T06:45:20.710Z,61.25
2016-06-12T06:46:20.697Z,60.77
2016-06-12T06:47:20.685Z,60.68
2016-06-12T06:48:20.672Z,60.8
2016-06-12T06:49:20.659Z,60.32
2016-06-12T06:50:20.647Z,60.13
2016-06-12T06:51:20.634Z,59.75
2016-06-12T06:52:20.622Z,59.2
2016-06-12T06:53:20.609Z,58.81
2016-06-12T06:54:20.596Z,58.14
2016-06-12T06:55:20.584Z,57.94
2016-06-12T06:56:20.571Z,57.75
2016-06-12T06:57:20.560Z,57.07
2016-06-12T06:58:20.547Z,57.17
2016-06-12T06:59:20.533Z,56.79
2016-06-12T07:00:20.522Z,57.1
2016-06-12T07:01:20.509Z,56.72
2016-06-12T07:02:20.496Z,55.85
2016-06-12T07:03:20.484Z,55.76
2016-06-12T07:04:20.471Z,55.94
2016-06-12T07:05:20.459Z,55.94
2016-06-12T07:06:20.962Z,55.36
2016-06-12T07:07:20.434Z,55.36
2016-06-12T07:08:20.422Z,55.27
2016-06-12T07:09:20.409Z,55.36
2016-06-12T07:10:20.395Z,55.46
2016-06-12T07:11:20.384Z,55.08
2016-06-12T07:12:20.371Z,54.98
2016-06-12T07:13:20.359Z,54.98
2016-06-12T07:14:20.345Z,55.08
2016-06-12T07:15:20.333Z,54.98
2016-06-12T07:16:20.321Z,55.18
2016-06-12T07:17:20.308Z,55.27
2016-06-12T07:18:20.295Z,55.27
2016-06-12T07:19:20.314Z,55.27
2016-06-12T07:20:20.270Z,55.27
2016-06-12T07:21:20.258Z,55.27
2016-06-12T07:22:20.245Z,54.69
2016-06-12T07:23:20.233Z,55.27
2016-06-12T07:24:20.236Z,54.31
2016-06-12T07:25:20.207Z,54.43
2016-06-12T07:26:20.195Z,54.43
2016-06-12T07:27:20.182Z,54.72
2016-06-12T07:28:20.169Z,54.4
2016-06-12T07:29:20.158Z,54.6
2016-06-12T07:30:20.145Z,54.05
2016-06-12T07:31:20.132Z,53.47
2016-06-12T07:32:20.120Z,53.37
2016-06-12T07:33:20.107Z,53.37
2016-06-12T07:34:20.094Z,53.27
2016-06-12T07:35:20.082Z,53.56
2016-06-12T07:36:20.069Z,52.53
2016-06-12T07:37:20.057Z,52.91
2016-06-12T07:38:20.045Z,52.72
2016-06-12T07:39:20.048Z,52.17
2016-06-12T07:40:20.035Z,51.68
2016-06-12T07:41:20.023Z,51.97
2016-06-12T07:42:20.010Z,51.49
2016-06-12T07:43:19.997Z,51.59
2016-06-12T07:44:19.985Z,51.2
2016-06-12T07:45:19.972Z,51.29
2016-06-12T07:46:19.960Z,51.29
2016-06-12T07:47:19.947Z,50.71
2016-06-12T07:48:19.934Z,50.71
2016-06-12T07:49:19.922Z,50.62
2016-06-12T07:50:19.909Z,50.43
2016-06-12T07:51:19.928Z,50.43
2016-06-12T07:52:19.899Z,50.33
2016-06-12T07:53:19.888Z,50.62
2016-06-12T07:54:19.875Z,50.62
2016-06-12T07:55:19.863Z,50.4
2016-06-12T07:56:19.850Z,50.5
2016-06-12T07:57:19.837Z,50.89
2016-06-12T07:58:19.825Z,50.96
2016-06-12T07:59:19.812Z,50.98
2016-06-12T08:00:19.799Z,50.98
2016-06-12T08:01:19.787Z,51.17
2016-06-12T08:02:19.775Z,50.76
2016-06-12T08:03:19.762Z,51.25
2016-06-12T08:04:19.750Z,51.25
2016-06-12T08:05:19.736Z,51.05
2016-06-12T08:06:19.724Z,51.92
2016-06-12T08:07:19.712Z,51.92
2016-06-12T08:08:19.698Z,51.82
2016-06-12T08:09:19.687Z,51.82
2016-06-12T08:10:19.690Z,52.37
2016-06-12T08:11:19.693Z,52.19
2016-06-12T08:12:19.665Z,51.8
2016-06-12T08:13:19.652Z,52.11
2016-06-12T08:14:19.639Z,51.73
2016-06-12T08:15:19.627Z,52.11
2016-06-12T08:16:19.614Z,51.25
2016-06-12T08:17:19.601Z,52.21
2016-06-12T08:18:19.589Z,51.44
2016-06-12T08:19:19.577Z,51.15
2016-06-12T08:20:19.564Z,50.98
2016-06-12T08:21:19.552Z,51.07
2016-06-12T08:22:19.539Z,50.98
2016-06-12T08:23:19.527Z,51.07
2016-06-12T08:24:19.514Z,50.89
2016-06-12T08:25:19.501Z,51.17
2016-06-12T08:26:19.490Z,51.37
2016-06-12T08:27:19.476Z,51.07
2016-06-12T08:28:19.464Z,50.91
2016-06-12T08:29:19.452Z,50.62
2016-06-12T08:30:19.438Z,50.52
2016-06-12T08:31:19.442Z,50.43
2016-06-12T08:32:19.429Z,50.62
2016-06-12T08:33:19.416Z,50.65
2016-06-12T08:34:19.404Z,50.84
2016-06-12T08:35:19.391Z,50.55
2016-06-12T08:36:19.379Z,50.65
2016-06-12T08:37:19.554Z,50.35
2016-06-12T08:38:19.370Z,49.77
2016-06-12T08:39:19.357Z,49.49
2016-06-12T08:40:19.344Z,49.49
2016-06-12T08:41:19.332Z,49.29
2016-06-12T08:42:19.320Z,48.35
2016-06-12T08:43:19.307Z,47.77
2016-06-12T08:44:19.309Z,47.6
2016-06-12T08:45:19.298Z,46.26
2016-06-12T08:46:19.284Z,46.46
2016-06-12T08:47:19.272Z,46.26
2016-06-12T08:48:19.260Z,46.08
2016-06-12T08:49:19.263Z,45.88
2016-06-12T08:50:19.250Z,45.78
2016-06-12T08:51:19.238Z,45.98
2016-06-12T08:52:19.225Z,45.88
2016-06-12T08:53:19.228Z,45.49
2016-06-12T08:54:19.216Z,45.49
2016-06-12T08:55:19.204Z,45.78
2016-06-12T08:56:19.190Z,45.88
2016-06-12T08:57:19.179Z,45.78
2016-06-12T08:58:19.182Z,46.26
2016-06-12T08:59:19.169Z,46.36
2016-06-12T09:00:19.155Z,45.98
2016-06-12T09:01:19.144Z,46.08
2016-06-12T09:02:19.162Z,45.76
2016-06-12T09:03:19.134Z,45.49
2016-06-12T09:04:19.121Z,45.3
2016-06-12T09:05:19.109Z,44.4
2016-06-12T09:06:19.096Z,44.7
2016-06-12T09:07:19.084Z,44.67
2016-06-12T09:08:19.072Z,44.57
2016-06-12T09:09:19.058Z,44.67
2016-06-12T09:10:19.062Z,43.9
2016-06-12T09:11:19.050Z,43.8
2016-06-12T09:12:19.036Z,43.71
2016-06-12T09:13:19.023Z,43.92
2016-06-12T09:14:19.013Z,43.92
2016-06-12T09:15:19.040Z,43.54
2016-06-12T09:16:19.069Z,43.92
2016-06-12T09:17:19.097Z,44.12
2016-06-12T09:18:19.141Z,44.31
2016-06-12T09:19:19.168Z,44.7
2016-06-12T09:20:19.171Z,44.7
2016-06-12T09:21:19.172Z,44.4
2016-06-12T09:22:19.174Z,44.21
2016-06-12T09:23:19.177Z,44.31
2016-06-12T09:24:19.178Z,43.82
2016-06-12T09:25:19.186Z,44.02
2016-06-12T09:26:19.179Z,43.92
2016-06-12T09:27:19.171Z,43.44
2016-06-12T09:28:19.164Z,43.54
2016-06-12T09:29:19.157Z,43.24
2016-06-12T09:30:19.146Z,43.34
2016-06-12T09:31:19.134Z,43.34
2016-06-12T09:32:19.140Z,43.82
2016-06-12T09:33:19.129Z,43.71
2016-06-12T09:34:19.118Z,43.51
2016-06-12T09:35:19.107Z,43.54
2016-06-12T09:36:19.095Z,43.15
2016-06-12T09:37:19.083Z,43.15
2016-06-12T09:38:19.086Z,42.66
2016-06-12T09:39:19.076Z,42.37
2016-06-12T09:40:19.063Z,42.37
2016-06-12T09:41:19.050Z,42.1
2016-06-12T09:42:19.039Z,42.2
2016-06-12T09:43:19.026Z,41.62
2016-06-12T09:44:19.030Z,41.52
2016-06-12T09:45:19.018Z,41.33
2016-06-12T09:46:19.005Z,40.94
2016-06-12T09:47:18.992Z,41.04
2016-06-12T09:48:18.980Z,40.84
2016-06-12T09:49:18.967Z,40.07
2016-06-12T09:50:18.970Z,39.88
2016-06-12T09:51:18.958Z,39.9
2016-06-12T09:52:18.945Z,39.41
2016-06-12T09:53:18.932Z,39.03
2016-06-12T09:54:18.936Z,38.27
2016-06-12T09:55:18.924Z,38.27
2016-06-12T09:56:18.910Z,37.59
2016-06-12T09:57:18.897Z,38.07
2016-06-12T09:58:18.901Z,37.69
2016-06-12T09:59:18.889Z,37.51
2016-06-12T10:00:18.876Z,37.32
2016-06-12T10:01:18.879Z,36.74
2016-06-12T10:02:18.866Z,36.64
2016-06-12T10:03:18.854Z,36.64
2016-06-12T10:04:18.841Z,36.44
2016-06-12T10:05:18.844Z,36.35
2016-06-12T10:06:18.833Z,35.98
2016-06-12T10:07:19.006Z,35.69
2016-06-12T10:08:18.822Z,35.61
2016-06-12T10:09:18.810Z,35.13
2016-06-12T10:10:18.798Z,34.93
2016-06-12T10:11:18.800Z,35.13
2016-06-12T10:12:18.788Z,35.41
2016-06-12T10:13:18.775Z,35.88
2016-06-12T10:14:18.778Z,36.46
2016-06-12T10:15:18.766Z,36.46
2016-06-12T10:16:18.753Z,37.41
2016-06-12T10:17:18.741Z,37.11
2016-06-12T10:18:18.744Z,38.07
2016-06-12T10:19:18.732Z,38.25
2016-06-12T10:20:18.718Z,38.25
2016-06-12T10:21:18.737Z,38.45
2016-06-12T10:22:18.710Z,38.25
2016-06-12T10:23:19.135Z,38.35
2016-06-12T10:24:18.684Z,38.83
2016-06-12T10:25:18.672Z,39.01
2016-06-12T10:26:18.659Z,39.78
2016-06-12T10:27:18.662Z,40.94
2016-06-12T10:28:18.650Z,43.24
2016-06-12T10:29:18.637Z,44.57
2016-06-12T10:30:18.624Z,45.93
2016-06-12T10:31:18.613Z,46.78
2016-06-12T10:32:18.600Z,48.97
2016-06-12T10:33:18.587Z,50.62
2016-06-12T10:34:18.574Z,51.01
2016-06-12T10:35:18.562Z,52.36
2016-06-12T10:36:18.565Z,52.26
2016-06-12T10:37:18.553Z,51.78
2016-06-12T10:38:18.759Z,51.75
2016-06-12T10:39:18.543Z,52.43
2016-06-12T10:40:18.499Z,52.81
2016-06-12T10:41:18.502Z,53.2
2016-06-12T10:42:18.489Z,53.59
2016-06-12T10:43:18.477Z,54.17
2016-06-12T10:44:18.464Z,54.36
2016-06-12T10:45:18.452Z,54.27
2016-06-12T10:46:18.439Z,54.65
2016-06-12T10:47:18.426Z,54.27
2016-06-12T10:48:18.415Z,54.07
2016-06-12T10:49:18.402Z,54.65
2016-06-12T10:50:18.388Z,54.27
2016-06-12T10:51:18.377Z,54.65
2016-06-12T10:52:18.364Z,54.55
2016-06-12T10:53:18.351Z,54.55
2016-06-12T10:54:18.339Z,54.46
2016-06-12T10:55:18.326Z,54.46
2016-06-12T10:56:18.314Z,54.39
2016-06-12T10:57:18.301Z,53.91
2016-06-12T10:58:18.289Z,53.61
2016-06-12T10:59:18.276Z,53.81
2016-06-12T11:00:18.263Z,53.42
2016-06-12T11:01:18.251Z,53.06
2016-06-12T11:02:18.239Z,52.87
2016-06-12T11:03:18.226Z,52.97
2016-06-12T11:04:18.213Z,52.19
2016-06-12T11:05:18.232Z,51.93
2016-06-12T11:06:18.204Z,51.35
2016-06-12T11:07:18.347Z,51.18
2016-06-12T11:08:18.179Z,51.28
2016-06-12T11:09:18.166Z,51.1
2016-06-12T11:10:18.154Z,50.92
2016-06-12T11:11:18.141Z,50.43
2016-06-12T11:12:18.144Z,49.49
2016-06-12T11:13:18.131Z,48.81
2016-06-12T11:14:18.120Z,49.1
2016-06-12T11:15:18.107Z,48.9
2016-06-12T11:16:18.110Z,49.29
2016-06-12T11:17:18.097Z,48.74
2016-06-12T11:18:18.084Z,48.44
2016-06-12T11:19:18.072Z,48.57
2016-06-12T11:20:18.075Z,48.27
2016-06-12T11:21:18.063Z,48.08
2016-06-12T11:22:18.050Z,47.98
2016-06-12T11:23:18.053Z,47.23
2016-06-12T11:24:18.040Z,46.86
2016-06-12T11:25:18.028Z,46.48
2016-06-12T11:26:18.031Z,45.8
2016-06-12T11:27:18.018Z,45.53
2016-06-12T11:28:18.005Z,44.65
2016-06-12T11:29:18.009Z,43.71
2016-06-12T11:30:17.996Z,42.93
2016-06-12T11:31:17.983Z,42.27
2016-06-12T11:32:17.987Z,41.88
2016-06-12T11:33:17.975Z,41.59
2016-06-12T11:34:17.978Z,40.99
2016-06-12T11:35:17.965Z,40.31
2016-06-12T11:36:17.968Z,39.72
2016-06-12T11:37:18.988Z,39.92
2016-06-12T11:38:17.944Z,39.62
2016-06-12T11:39:17.947Z,39.04
2016-06-12T11:40:17.934Z,39.16
2016-06-12T11:41:17.920Z,38.77
2016-06-12T11:42:17.923Z,38.39
2016-06-12T11:43:17.911Z,38.29
2016-06-12T11:44:17.914Z,37.8
2016-06-12T11:45:17.918Z,37.32
2016-06-12T11:46:17.905Z,37.41
2016-06-12T11:47:17.893Z,37.59
2016-06-12T11:48:17.880Z,37.57
2016-06-12T11:49:17.867Z,37.86
2016-06-12T11:50:17.870Z,38.23
2016-06-12T11:51:17.858Z,39.08
2016-06-12T11:52:17.845Z,39.84
2016-06-12T11:53:17.849Z,41.06
2016-06-12T11:54:17.835Z,42.1
2016-06-12T11:55:17.824Z,42.68
2016-06-12T11:56:17.811Z,43.63
2016-06-12T11:57:17.798Z,43.71
2016-06-12T11:58:17.785Z,45.04
2016-06-12T11:59:17.773Z,45.11
2016-06-12T12:00:17.761Z,45.48
2016-06-12T12:01:17.748Z,45.84
2016-06-12T12:02:17.751Z,46.13
2016-06-12T12:03:17.738Z,46.49
2016-06-12T12:04:17.726Z,47.44
2016-06-12T12:05:17.713Z,47.92
2016-06-12T12:06:17.701Z,48.4
2016-06-12T12:07:17.688Z,48.86
2016-06-12T12:08:18.425Z,49.34
2016-06-12T12:09:17.647Z,50.27
2016-06-12T12:10:17.651Z,50.76
2016-06-12T12:11:17.622Z,51.79
2016-06-12T12:12:17.609Z,52.47
2016-06-12T12:13:17.598Z,52.85
2016-06-12T12:14:17.585Z,53.69
2016-06-12T12:15:17.572Z,54.36
2016-06-12T12:16:17.561Z,54.46
2016-06-12T12:17:17.547Z,54.85
2016-06-12T12:18:17.628Z,54.85
2016-06-12T12:19:17.507Z,55.04
2016-06-12T12:20:17.495Z,54.85
2016-06-12T12:21:17.482Z,55.23
2016-06-12T12:22:17.469Z,55.13
2016-06-12T12:23:17.457Z,55.33
2016-06-12T12:24:17.443Z,55.43
2016-06-12T12:25:17.416Z,55.81
2016-06-12T12:26:17.403Z,55.13
2016-06-12T12:27:17.390Z,56.1
2016-06-12T12:28:17.378Z,55.88
2016-06-12T12:29:17.365Z,55.78
2016-06-12T12:30:17.337Z,55.98
2016-06-12T12:31:17.325Z,55.98
2016-06-12T12:32:17.312Z,55.98
2016-06-12T12:33:17.300Z,55.78
2016-06-12T12:34:17.288Z,55.78
2016-06-12T12:35:17.258Z,55.49
2016-06-12T12:36:17.246Z,55.88
2016-06-12T12:37:17.233Z,55.98
2016-06-12T12:38:17.470Z,55.68
2016-06-12T12:39:17.209Z,55.98
2016-06-12T12:40:17.196Z,55.2
2016-06-12T12:41:17.167Z,55.3
2016-06-12T12:42:17.155Z,55.33
2016-06-12T12:43:17.143Z,55.33
2016-06-12T12:44:17.131Z,54.75
2016-06-12T12:45:17.102Z,54.91
2016-06-12T12:46:17.089Z,55.13
2016-06-12T12:47:17.077Z,54.82
2016-06-12T12:48:17.064Z,54.27
2016-06-12T12:49:17.052Z,54.27
2016-06-12T12:50:17.024Z,54.56
2016-06-12T12:51:17.011Z,54.27
2016-06-12T12:52:16.999Z,54.56
2016-06-12T12:53:16.986Z,54.65
2016-06-12T12:54:16.974Z,54.17
2016-06-12T12:55:16.961Z,54.27